Time;durP1;ratioP1;P1;durP2;ratioP2;P2;SDS_P1;SDS_P2;PMS_P1;PMS_P2;Temp;Humidity;BMP_temperature;BMP_pressure;BME280_temperature;BME280_humidity;BME280_pressure;Samples;Min_cycle;Max_cycle;Signal;HPM_P1;HPM_P2
2023/09/04 00:02:12;;;;;;;10.50;6.53;;;21.10;79.40;;;;;;5074556;28;20199;-58
2023/09/04 00:04:39;;;;;;;8.98;5.70;;;21.10;79.40;;;;;;5074404;28;20246;-59
2023/09/04 00:07:06;;;;;;;10.35;5.70;;;21.10;79.40;;;;;;5074946;28;20317;-59
2023/09/04 00:09:33;;;;;;;9.73;5.78;;;21.10;79.50;;;;;;5074635;28;20270;-58
2023/09/04 00:12:00;;;;;;;10.60;5.70;;;21.20;79.60;;;;;;5074402;28;20718;-58
2023/09/04 00:14:28;;;;;;;11.77;6.47;;;21.10;79.50;;;;;;5074615;28;20198;-57
2023/09/04 00:16:55;;;;;;;9.55;5.50;;;21.20;79.60;;;;;;5074112;28;20194;-59
2023/09/04 00:19:22;;;;;;;8.20;5.45;;;21.10;79.70;;;;;;5074281;28;20725;-59
2023/09/04 00:21:49;;;;;;;7.70;5.53;;;21.10;79.40;;;;;;5074259;28;20229;-58
2023/09/04 00:24:20;;;;;;;7.32;5.15;;;21.20;79.70;;;;;;5074224;28;20194;-55
2023/09/04 00:26:47;;;;;;;8.52;5.93;;;21.10;79.60;;;;;;5074282;28;20194;-58
2023/09/04 00:29:14;;;;;;;7.22;5.10;;;21.10;79.70;;;;;;5074346;28;20640;-57
2023/09/04 00:31:43;;;;;;;6.40;5.18;;;21.20;79.70;;;;;;5074142;28;20282;-57
2023/09/04 00:34:09;;;;;;;9.77;5.40;;;21.20;79.60;;;;;;5074273;28;20191;-58
2023/09/04 00:36:37;;;;;;;9.18;4.90;;;21.10;79.60;;;;;;5074103;28;20282;-56
2023/09/04 00:39:04;;;;;;;7.70;4.90;;;21.20;79.70;;;;;;5073936;28;20198;-57
2023/09/04 00:41:31;;;;;;;7.75;5.20;;;21.20;79.70;;;;;;5074169;28;20197;-58
2023/09/04 00:43:58;;;;;;;9.23;4.78;;;21.20;79.60;;;;;;5073721;28;20737;-55
2023/09/04 00:46:26;;;;;;;7.97;4.68;;;21.10;79.60;;;;;;5073717;28;20226;-58
2023/09/04 00:48:55;;;;;;;8.48;4.40;;;21.10;79.40;;;;;;5073567;28;20225;-58
2023/09/04 00:51:22;;;;;;;9.15;4.90;;;21.10;79.50;;;;;;5073878;28;20281;-57
2023/09/04 00:53:50;;;;;;;9.07;5.60;;;21.10;79.60;;;;;;5073381;28;20278;-57
2023/09/04 00:56:17;;;;;;;7.55;4.78;;;21.20;79.60;;;;;;5073654;28;20187;-58
2023/09/04 00:58:44;;;;;;;8.65;4.90;;;21.10;79.50;;;;;;5073778;28;20281;-56
2023/09/04 01:01:11;;;;;;;7.40;4.70;;;21.10;79.40;;;;;;5073201;28;20278;-59
2023/09/04 01:03:38;;;;;;;5.65;4.18;;;21.20;79.60;;;;;;5073417;28;20182;-58
2023/09/04 01:06:07;;;;;;;8.73;5.00;;;21.20;79.40;;;;;;5073134;28;20231;-57
2023/09/04 01:08:36;;;;;;;5.47;4.60;;;21.10;79.30;;;;;;5073217;28;20269;-57
2023/09/04 01:11:10;;;;;;;7.82;4.68;;;21.10;79.30;;;;;;5073484;28;20195;-57
2023/09/04 01:13:41;;;;;;;7.22;4.45;;;21.10;79.40;;;;;;5073426;28;20187;-57
2023/09/04 01:16:09;;;;;;;6.30;4.15;;;21.10;79.20;;;;;;5072678;28;20218;-58
2023/09/04 01:18:36;;;;;;;6.57;4.53;;;21.10;79.30;;;;;;5073300;28;20195;-58
2023/09/04 01:21:05;;;;;;;5.35;4.40;;;21.10;79.20;;;;;;5073316;28;20270;-58
2023/09/04 01:23:33;;;;;;;7.60;4.38;;;21.20;79.30;;;;;;5072804;28;20289;-57
2023/09/04 01:26:09;;;;;;;7.72;4.53;;;21.10;79.20;;;;;;5073199;28;20725;-58
2023/09/04 01:28:43;;;;;;;8.23;4.55;;;21.10;79.30;;;;;;5072779;28;20735;-58
2023/09/04 01:31:16;;;;;;;7.45;3.90;;;21.10;79.20;;;;;;5073255;28;20191;-57
2023/09/04 01:33:47;;;;;;;4.90;4.15;;;21.20;79.30;;;;;;5072855;28;20281;-58
2023/09/04 01:36:17;;;;;;;7.78;4.13;;;21.10;79.20;;;;;;5072937;28;20187;-58
2023/09/04 01:38:46;;;;;;;7.10;4.18;;;21.20;79.20;;;;;;5072711;28;20202;-56
2023/09/04 01:41:13;;;;;;;5.28;4.00;;;21.10;79.20;;;;;;5073004;28;20198;-56
2023/09/04 01:43:40;;;;;;;8.60;4.53;;;21.10;79.20;;;;;;5072874;28;20190;-57
2023/09/04 01:46:07;;;;;;;9.40;4.45;;;21.10;80.10;;;;;;5072199;28;20651;-56
2023/09/04 01:48:35;;;;;;;6.90;4.07;;;21.10;79.30;;;;;;5071262;28;20222;-54
2023/09/04 01:51:02;;;;;;;8.93;4.45;;;21.10;79.30;;;;;;5080487;28;20205;-58
2023/09/04 01:53:30;;;;;;;9.25;3.97;;;21.10;79.30;;;;;;5092707;28;20212;-57
2023/09/04 01:55:58;;;;;;;7.45;3.85;;;21.20;79.30;;;;;;5093024;28;20284;-57
2023/09/04 01:58:25;;;;;;;6.85;3.90;;;21.10;79.20;;;;;;5092755;28;20190;-57
2023/09/04 02:00:52;;;;;;;6.28;3.95;;;21.10;79.20;;;;;;5092705;28;20193;-56
2023/09/04 02:03:19;;;;;;;7.43;3.88;;;21.10;79.20;;;;;;5092855;28;20186;-58
2023/09/04 02:05:46;;;;;;;6.18;4.10;;;21.10;79.20;;;;;;5092543;28;20321;-58
2023/09/04 02:08:13;;;;;;;7.22;3.90;;;21.10;79.30;;;;;;5092757;28;20233;-56
2023/09/04 02:10:41;;;;;;;5.78;3.92;;;21.10;79.30;;;;;;5092731;28;20618;-56
2023/09/04 02:13:08;;;;;;;6.63;3.78;;;21.10;79.30;;;;;;5092755;28;20194;-57
2023/09/04 02:15:38;;;;;;;6.65;3.65;;;21.10;79.30;;;;;;5092377;28;20194;-57
2023/09/04 02:18:05;;;;;;;5.40;3.60;;;21.10;79.30;;;;;;5092641;28;20182;-56
2023/09/04 02:20:32;;;;;;;6.50;4.22;;;21.10;79.30;;;;;;5092611;28;20210;-55
2023/09/04 02:22:59;;;;;;;5.60;3.95;;;21.10;79.30;;;;;;5092150;28;20225;-56
2023/09/04 02:25:26;;;;;;;5.43;3.65;;;21.10;79.30;;;;;;5092468;28;20192;-58
2023/09/04 02:27:55;;;;;;;7.18;3.80;;;21.10;79.30;;;;;;5091633;28;20218;-56
2023/09/04 02:30:21;;;;;;;9.30;4.03;;;21.10;79.40;;;;;;5092101;28;20187;-57
2023/09/04 02:32:48;;;;;;;6.00;3.75;;;21.10;79.40;;;;;;5092456;28;20571;-57
2023/09/04 02:35:15;;;;;;;4.68;3.60;;;21.10;79.50;;;;;;5092390;28;20213;-57
2023/09/04 02:37:44;;;;;;;8.02;3.78;;;21.10;79.40;;;;;;5091826;28;20225;-57
2023/09/04 02:40:12;;;;;;;11.88;3.83;;;21.20;79.60;;;;;;5092322;28;20248;-56
2023/09/04 02:42:39;;;;;;;8.27;4.00;;;21.10;79.60;;;;;;5092088;28;20194;-58
2023/09/04 02:45:08;;;;;;;8.30;4.68;;;21.10;79.60;;;;;;5092097;28;20196;-58
2023/09/04 02:47:37;;;;;;;6.25;3.60;;;21.10;79.60;;;;;;5092187;28;20274;-56
2023/09/04 02:50:05;;;;;;;5.93;3.75;;;21.20;79.60;;;;;;5092262;28;20244;-56
2023/09/04 02:52:32;;;;;;;5.85;3.35;;;21.10;79.40;;;;;;5092053;28;20261;-57
2023/09/04 02:54:59;;;;;;;5.93;3.55;;;21.10;79.50;;;;;;5092016;28;20744;-58
2023/09/04 02:57:26;;;;;;;5.25;3.55;;;21.00;79.30;;;;;;5092087;28;20251;-55
2023/09/04 02:59:53;;;;;;;11.77;4.00;;;21.10;79.60;;;;;;5091964;28;20216;-56
2023/09/04 03:02:22;;;;;;;6.47;3.47;;;21.10;79.60;;;;;;5092156;28;20277;-58
2023/09/04 03:04:54;;;;;;;4.10;3.28;;;21.10;79.60;;;;;;5091941;28;20237;-56
2023/09/04 03:07:21;;;;;;;6.32;3.47;;;21.00;79.50;;;;;;5091897;28;20183;-57
2023/09/04 03:09:48;;;;;;;9.30;3.47;;;21.10;79.60;;;;;;5091712;28;20754;-56
2023/09/04 03:12:14;;;;;;;7.05;3.40;;;21.00;79.50;;;;;;5092062;28;20182;-56
2023/09/04 03:14:41;;;;;;;8.52;3.38;;;21.10;79.60;;;;;;5091749;28;20191;-56
2023/09/04 03:17:08;;;;;;;6.60;3.38;;;21.00;79.50;;;;;;5091693;28;20683;-56
2023/09/04 03:19:36;;;;;;;7.32;3.88;;;21.10;79.60;;;;;;5092015;28;20197;-57
2023/09/04 03:22:03;;;;;;;8.57;3.70;;;21.00;79.50;;;;;;5091822;28;20214;-57
2023/09/04 03:24:30;;;;;;;9.13;4.05;;;21.00;79.60;;;;;;5091980;28;20197;-57
2023/09/04 03:26:58;;;;;;;4.13;3.03;;;21.10;79.70;;;;;;5091908;28;20273;-57
2023/09/04 03:29:25;;;;;;;4.70;3.70;;;21.00;79.60;;;;;;5091452;28;20701;-56
2023/09/04 03:31:52;;;;;;;5.32;3.20;;;21.10;79.70;;;;;;5091971;28;20273;-59
2023/09/04 03:34:19;;;;;;;5.28;3.42;;;21.00;79.50;;;;;;5091553;28;20186;-57
2023/09/04 03:36:48;;;;;;;23.85;5.22;;;21.00;79.60;;;;;;5091572;28;20186;-58
2023/09/04 03:39:14;;;;;;;7.97;3.80;;;21.00;79.60;;;;;;5092134;28;20190;-59
2023/09/04 03:41:41;;;;;;;7.32;3.53;;;21.10;79.70;;;;;;5095589;28;20333;-59
2023/09/04 03:44:08;;;;;;;10.48;3.58;;;21.00;79.50;;;;;;5095029;28;20281;-58
2023/09/04 03:46:35;;;;;;;8.55;3.30;;;21.10;79.60;;;;;;5095379;28;20182;-57
2023/09/04 03:49:02;;;;;;;4.78;2.88;;;21.10;79.60;;;;;;5095335;28;20245;-59
2023/09/04 03:51:29;;;;;;;8.85;3.40;;;21.10;79.60;;;;;;5095464;28;20186;-57
2023/09/04 03:54:01;;;;;;;4.57;3.30;;;21.10;79.60;;;;;;5095332;28;20277;-58
2023/09/04 03:56:29;;;;;;;3.80;2.95;;;21.00;79.50;;;;;;5095219;28;20197;-58
2023/09/04 03:58:56;;;;;;;5.07;3.10;;;21.00;79.60;;;;;;5095051;28;20280;-59
2023/09/04 04:01:23;;;;;;;4.82;3.35;;;21.00;79.60;;;;;;5095165;28;20276;-59
2023/09/04 04:03:50;;;;;;;5.43;3.80;;;21.10;79.60;;;;;;5094612;28;20650;-58
2023/09/04 04:06:17;;;;;;;4.13;3.13;;;21.00;79.50;;;;;;5094872;28;20269;-60
2023/09/04 04:08:45;;;;;;;7.07;3.08;;;21.00;79.40;;;;;;5095200;28;20230;-58
2023/09/04 04:11:13;;;;;;;4.00;3.10;;;21.00;79.50;;;;;;5094743;28;20646;-59
2023/09/04 04:13:40;;;;;;;4.15;3.03;;;21.00;79.40;;;;;;5094399;28;20671;-58
2023/09/04 04:16:07;;;;;;;7.07;2.90;;;21.00;80.20;;;;;;5094582;28;20190;-59
2023/09/04 04:18:34;;;;;;;3.63;3.10;;;21.00;79.40;;;;;;5094975;28;20202;-59
2023/09/04 04:21:02;;;;;;;5.38;3.10;;;21.00;79.50;;;;;;5094587;28;20192;-59
2023/09/04 04:23:29;;;;;;;7.90;2.95;;;21.10;79.60;;;;;;5094519;28;20235;-59
2023/09/04 04:25:56;;;;;;;5.05;3.40;;;21.00;79.50;;;;;;5094609;28;20192;-58
2023/09/04 04:28:24;;;;;;;6.13;3.10;;;21.00;79.50;;;;;;5094080;28;20666;-59
2023/09/04 04:30:51;;;;;;;7.50;3.20;;;20.90;79.40;;;;;;5094617;28;20196;-58
2023/09/04 04:33:18;;;;;;;6.13;3.35;;;21.10;79.50;;;;;;5094827;28;20277;-58
2023/09/04 04:35:45;;;;;;;3.92;3.00;;;21.00;79.50;;;;;;5094211;28;20595;-58
2023/09/04 04:38:12;;;;;;;5.40;3.40;;;21.00;79.50;;;;;;5094475;28;20214;-59
2023/09/04 04:40:39;;;;;;;6.25;3.20;;;21.00;79.50;;;;;;5094154;28;20278;-57
2023/09/04 04:43:06;;;;;;;5.40;3.40;;;21.00;79.50;;;;;;5094124;28;20277;-59
2023/09/04 04:45:34;;;;;;;7.35;3.33;;;21.00;79.50;;;;;;5094006;28;20190;-58
2023/09/04 04:48:03;;;;;;;4.75;3.40;;;21.00;79.50;;;;;;5094270;28;20190;-59
2023/09/04 04:50:30;;;;;;;5.07;3.00;;;21.00;79.50;;;;;;5093721;28;20194;-58
2023/09/04 04:52:57;;;;;;;4.32;3.13;;;21.00;79.50;;;;;;5093486;28;20186;-57
2023/09/04 04:55:24;;;;;;;10.73;3.38;;;21.00;79.60;;;;;;5094123;28;20281;-57
2023/09/04 04:57:53;;;;;;;10.38;3.22;;;21.00;79.50;;;;;;5093891;28;20190;-59
2023/09/04 05:00:20;;;;;;;10.25;3.28;;;21.00;79.50;;;;;;5093694;28;20596;-58
2023/09/04 05:02:48;;;;;;;10.52;3.13;;;21.00;79.50;;;;;;5093910;28;20182;-58
2023/09/04 05:05:15;;;;;;;3.95;2.80;;;21.00;79.50;;;;;;5093461;28;20608;-59
2023/09/04 05:07:42;;;;;;;4.68;3.22;;;21.00;79.50;;;;;;5094081;28;20198;-59
2023/09/04 05:10:10;;;;;;;4.05;3.30;;;21.00;79.40;;;;;;5093766;28;20240;-56
2023/09/04 05:12:37;;;;;;;7.65;4.03;;;21.00;79.50;;;;;;5093315;28;20190;-58
2023/09/04 05:15:06;;;;;;;5.03;3.28;;;21.00;79.40;;;;;;5093441;28;20186;-62
2023/09/04 05:17:33;;;;;;;4.82;3.00;;;21.00;79.40;;;;;;5093651;28;20187;-62
2023/09/04 05:20:03;;;;;;;4.78;3.72;;;21.00;79.40;;;;;;5093486;28;20284;-61
2023/09/04 05:22:34;;;;;;;4.60;3.30;;;21.00;79.40;;;;;;5093354;28;20186;-60
2023/09/04 05:25:06;;;;;;;5.57;3.55;;;21.10;79.40;;;;;;5093457;28;20269;-60
2023/09/04 05:27:40;;;;;;;4.43;3.38;;;21.10;79.10;;;;;;5092548;28;20201;-58
2023/09/04 05:30:11;;;;;;;4.85;3.40;;;21.10;79.00;;;;;;5092980;28;20218;-58
2023/09/04 05:32:38;;;;;;;4.15;3.65;;;21.10;79.10;;;;;;5093410;28;20190;-54
2023/09/04 05:35:08;;;;;;;9.38;3.55;;;21.20;79.60;;;;;;5093104;28;20269;-61
2023/09/04 05:37:35;;;;;;;5.80;3.58;;;21.20;79.60;;;;;;5093230;28;20205;-56
2023/09/04 05:40:03;;;;;;;5.18;3.60;;;21.10;79.90;;;;;;5093023;28;20285;-58
2023/09/04 05:42:30;;;;;;;4.18;3.40;;;21.10;79.80;;;;;;5092993;28;20231;-64
2023/09/04 05:44:56;;;;;;;6.03;3.45;;;21.10;80.00;;;;;;5092995;28;20748;-64
2023/09/04 05:47:23;;;;;;;6.68;3.70;;;21.10;80.30;;;;;;5092746;28;20636;-63
2023/09/04 05:49:50;;;;;;;6.43;3.63;;;21.10;80.20;;;;;;5092806;28;20218;-63
2023/09/04 05:52:18;;;;;;;5.35;3.42;;;21.10;80.50;;;;;;5093022;28;20186;-63
2023/09/04 05:54:45;;;;;;;6.25;3.35;;;21.10;80.80;;;;;;5093240;28;20194;-62
2023/09/04 05:57:13;;;;;;;6.65;3.53;;;21.10;81.40;;;;;;5092806;28;20194;-64
2023/09/04 05:59:39;;;;;;;6.72;3.97;;;21.00;81.20;;;;;;5092553;28;20186;-62
2023/09/04 06:02:07;;;;;;;5.00;3.70;;;21.10;81.50;;;;;;5092722;28;20350;-63
2023/09/04 06:04:34;;;;;;;5.15;3.70;;;21.00;81.30;;;;;;5092450;28;20229;-62
2023/09/04 06:07:04;;;;;;;7.45;4.30;;;21.00;81.70;;;;;;5093088;28;20194;-63
2023/09/04 06:09:33;;;;;;;7.32;3.90;;;21.00;81.40;;;;;;5092780;28;20224;-59
2023/09/04 06:12:00;;;;;;;9.00;4.03;;;21.00;81.30;;;;;;5092537;28;20187;-59
2023/09/04 06:14:27;;;;;;;5.97;3.75;;;21.00;81.70;;;;;;5092685;28;20205;-61
2023/09/04 06:16:53;;;;;;;4.88;3.58;;;21.00;81.50;;;;;;5092368;28;20273;-57
2023/09/04 06:19:20;;;;;;;4.38;3.90;;;20.90;81.40;;;;;;5092198;28;20277;-59
2023/09/04 06:21:47;;;;;;;9.68;4.55;;;20.90;81.30;;;;;;5092333;28;20190;-55
2023/09/04 06:24:14;;;;;;;6.43;4.00;;;20.90;81.30;;;;;;5092596;28;20194;-54
2023/09/04 06:26:42;;;;;;;9.85;4.00;;;20.90;81.00;;;;;;5092055;28;20187;-55
2023/09/04 06:29:09;;;;;;;8.65;4.28;;;20.90;81.70;;;;;;5092336;28;20221;-57
2023/09/04 06:31:36;;;;;;;5.95;4.30;;;20.90;80.90;;;;;;5092227;28;20194;-60
2023/09/04 06:34:04;;;;;;;7.72;4.60;;;21.00;81.10;;;;;;5092323;28;20193;-57
2023/09/04 06:36:31;;;;;;;9.15;4.38;;;21.00;80.90;;;;;;5092395;28;20561;-57
2023/09/04 06:38:58;;;;;;;6.47;4.05;;;21.00;80.90;;;;;;5092137;28;20239;-57
2023/09/04 06:41:25;;;;;;;5.70;4.72;;;21.00;80.80;;;;;;5091856;28;20225;-57
2023/09/04 06:43:54;;;;;;;5.93;3.97;;;21.00;80.70;;;;;;5092464;28;20201;-58
2023/09/04 06:46:21;;;;;;;7.35;4.38;;;21.00;80.70;;;;;;5092278;28;20233;-58
2023/09/04 06:48:48;;;;;;;9.90;4.10;;;20.90;81.20;;;;;;5091674;28;20182;-56
2023/09/04 06:51:15;;;;;;;5.43;4.50;;;20.90;80.50;;;;;;5091997;28;20182;-56
2023/09/04 06:53:42;;;;;;;5.43;4.00;;;21.00;80.60;;;;;;5092339;28;20190;-57
2023/09/04 06:56:09;;;;;;;7.72;4.28;;;20.90;80.50;;;;;;5092051;28;20186;-57
2023/09/04 06:58:36;;;;;;;6.15;4.50;;;21.00;81.50;;;;;;5092188;28;20190;-58
2023/09/04 07:01:05;;;;;;;6.25;4.05;;;20.90;80.60;;;;;;5091878;28;20186;-57
2023/09/04 07:03:32;;;;;;;6.72;4.63;;;21.00;80.70;;;;;;5091949;28;20248;-57
2023/09/04 07:06:01;;;;;;;9.45;4.60;;;20.90;80.60;;;;;;5091784;28;20229;-57
2023/09/04 07:08:30;;;;;;;7.93;5.50;;;20.90;80.50;;;;;;5092343;28;20194;-56
2023/09/04 07:10:59;;;;;;;6.88;4.65;;;21.00;80.60;;;;;;5091382;28;20220;-58
2023/09/04 07:13:26;;;;;;;5.03;4.13;;;20.90;80.40;;;;;;5091801;28;20699;-59
2023/09/04 07:15:53;;;;;;;6.93;4.78;;;21.00;80.50;;;;;;5095042;28;20190;-59
2023/09/04 07:18:23;;;;;;;6.90;4.32;;;21.00;80.60;;;;;;5095805;28;20483;-58
2023/09/04 07:20:51;;;;;;;8.68;4.57;;;20.90;80.50;;;;;;5095613;28;20232;-57
2023/09/04 07:23:20;;;;;;;7.55;5.03;;;21.00;80.60;;;;;;5095623;28;20190;-55
2023/09/04 07:25:47;;;;;;;8.05;5.03;;;20.90;80.50;;;;;;5095188;28;20585;-55
2023/09/04 07:28:14;;;;;;;6.18;4.72;;;20.90;80.40;;;;;;5095771;28;20236;-56
2023/09/04 07:30:41;;;;;;;6.13;4.60;;;20.90;80.40;;;;;;5095727;28;20214;-55
2023/09/04 07:33:08;;;;;;;6.00;4.35;;;20.90;80.40;;;;;;5095468;28;20225;-56
2023/09/04 07:35:36;;;;;;;9.43;5.65;;;21.00;80.50;;;;;;5095350;28;20726;-57
2023/09/04 07:38:04;;;;;;;6.55;4.72;;;21.00;80.50;;;;;;5095983;28;20269;-58
2023/09/04 07:40:31;;;;;;;7.07;4.97;;;21.00;80.50;;;;;;5095179;28;20643;-56
2023/09/04 07:42:58;;;;;;;6.15;4.45;;;21.00;80.50;;;;;;5095328;28;20190;-52
2023/09/04 07:45:25;;;;;;;5.22;4.40;;;21.10;80.60;;;;;;5095525;28;20190;-54
2023/09/04 07:47:52;;;;;;;5.90;4.55;;;21.10;80.60;;;;;;5095260;28;20206;-53
2023/09/04 07:50:19;;;;;;;5.65;4.55;;;21.00;80.40;;;;;;5095425;28;20306;-56
2023/09/04 07:52:47;;;;;;;11.05;4.85;;;21.10;80.50;;;;;;5095391;28;20273;-62
2023/09/04 07:55:14;;;;;;;6.28;4.53;;;21.00;80.50;;;;;;5095113;28;20281;-63
2023/09/04 07:57:43;;;;;;;9.55;5.00;;;21.10;80.60;;;;;;5095401;28;20197;-63
2023/09/04 08:00:11;;;;;;;6.95;4.78;;;21.10;80.60;;;;;;5095319;28;20186;-64
2023/09/04 08:02:38;;;;;;;5.88;4.65;;;21.10;80.70;;;;;;5094767;28;20645;-63
2023/09/04 08:05:06;;;;;;;8.02;5.13;;;21.00;80.60;;;;;;5094999;28;20222;-63
2023/09/04 08:07:33;;;;;;;5.53;4.63;;;21.10;80.80;;;;;;5095011;28;20225;-59
2023/09/04 08:10:02;;;;;;;6.32;4.70;;;21.10;80.80;;;;;;5094419;28;20300;-57
2023/09/04 08:12:29;;;;;;;8.27;4.70;;;21.00;80.70;;;;;;5095258;28;20281;-57
2023/09/04 08:14:59;;;;;;;7.38;5.20;;;21.10;80.90;;;;;;5094613;28;20186;-56
2023/09/04 08:17:28;;;;;;;7.82;5.07;;;21.10;80.90;;;;;;5094644;28;20265;-57
2023/09/04 08:19:55;;;;;;;7.35;5.32;;;21.10;81.00;;;;;;5094203;28;20203;-56
2023/09/04 08:22:25;;;;;;;10.77;5.15;;;21.10;80.90;;;;;;5094992;28;20290;-55
2023/09/04 08:24:57;;;;;;;5.60;4.82;;;21.10;80.90;;;;;;5094479;28;20265;-57
2023/09/04 08:27:26;;;;;;;10.00;5.35;;;21.10;80.90;;;;;;5094384;28;20695;-56
2023/09/04 08:29:53;;;;;;;7.68;4.70;;;21.20;81.00;;;;;;5094580;28;20304;-52
2023/09/04 08:32:20;;;;;;;6.95;4.78;;;21.10;81.00;;;;;;5093984;28;20204;-55
2023/09/04 08:34:47;;;;;;;14.43;5.72;;;21.10;81.00;;;;;;5094192;28;20229;-55
2023/09/04 08:37:14;;;;;;;7.93;4.60;;;21.20;81.10;;;;;;5094804;28;20187;-55
2023/09/04 08:39:41;;;;;;;8.02;5.15;;;21.20;81.10;;;;;;5093979;28;20735;-57
2023/09/04 08:42:09;;;;;;;7.82;4.93;;;21.20;81.10;;;;;;5094391;28;20190;-53
2023/09/04 08:44:38;;;;;;;8.45;4.68;;;21.10;81.10;;;;;;5094504;28;20292;-55
2023/09/04 08:47:09;;;;;;;10.75;5.20;;;21.20;81.20;;;;;;5093846;28;20712;-57
2023/09/04 08:49:38;;;;;;;8.93;4.97;;;21.20;81.10;;;;;;5093964;28;20225;-56
2023/09/04 08:52:07;;;;;;;6.78;5.00;;;21.20;81.10;;;;;;5094264;28;20186;-53
2023/09/04 08:54:35;;;;;;;8.27;4.75;;;21.20;81.10;;;;;;5093952;28;20264;-58
2023/09/04 08:57:25;;;;;;;8.60;4.93;;;21.20;81.10;;;;;;5094197;28;20276;-58
2023/09/04 08:59:54;;;;;;;8.90;4.85;;;21.20;81.00;;;;;;5031392;28;20200;-55
2023/09/04 09:02:22;;;;;;;8.38;4.97;;;21.20;81.00;;;;;;5031055;28;20284;-58
2023/09/04 09:04:50;;;;;;;6.80;4.65;;;21.20;81.00;;;;;;5031101;28;20319;-55
2023/09/04 09:07:30;;;;;;;;;;;;;;;;;;;;;
2023/09/04 09:10:37;;;;;;;7.43;4.78;;;21.20;80.90;;;;;;4981739;28;20238;-58
2023/09/04 09:13:05;;;;;;;8.52;5.10;;;21.10;80.80;;;;;;5031220;28;20751;-60
2023/09/04 09:15:34;;;;;;;7.57;4.78;;;21.30;80.90;;;;;;5031044;28;20197;-60
2023/09/04 09:18:02;;;;;;;7.43;4.53;;;21.30;80.90;;;;;;5031005;28;20205;-59
2023/09/04 09:20:31;;;;;;;10.35;4.95;;;21.20;80.80;;;;;;5031113;28;20657;-60
2023/09/04 09:22:59;;;;;;;5.82;4.72;;;21.30;80.90;;;;;;5031111;28;20288;-60
2023/09/04 09:25:28;;;;;;;10.43;5.07;;;21.30;80.80;;;;;;5030542;28;20208;-60
2023/09/04 09:28:02;;;;;;;10.57;4.90;;;21.30;80.80;;;;;;5030970;28;20197;-58
2023/09/04 09:30:41;;;;;;;10.48;4.63;;;21.20;80.60;;;;;;5030724;28;20234;-58
2023/09/04 09:35:56;;;;;;;11.20;4.68;;;21.30;80.70;;;;;;4953881;28;20191;-60
2023/09/04 09:38:23;;;;;;;5.07;4.40;;;21.20;80.60;;;;;;5092388;28;20553;-59
2023/09/04 09:40:51;;;;;;;14.48;4.70;;;21.30;80.70;;;;;;5093555;28;20190;-59
2023/09/04 09:43:19;;;;;;;9.43;4.63;;;21.30;80.70;;;;;;5093299;28;20202;-57
2023/09/04 09:45:51;;;;;;;6.45;4.50;;;21.30;80.60;;;;;;5092970;28;20186;-59
2023/09/04 09:48:23;;;;;;;10.85;5.25;;;21.30;80.60;;;;;;5092598;28;20209;-58
2023/09/04 09:50:53;;;;;;;6.28;4.60;;;21.30;80.50;;;;;;5092947;28;20221;-58
2023/09/04 09:53:24;;;;;;;6.63;4.45;;;21.30;80.50;;;;;;5092964;28;20201;-60
2023/09/04 09:55:52;;;;;;;10.13;5.20;;;21.30;80.50;;;;;;5092697;28;20197;-59
2023/09/04 10:01:03;;;;;;;16.65;5.03;;;21.30;80.50;;;;;;5088542;28;20202;-58
2023/09/04 10:03:33;;;;;;;8.15;4.60;;;21.40;80.50;;;;;;5092551;28;20190;-59
2023/09/04 10:06:04;;;;;;;19.40;4.95;;;21.40;80.50;;;;;;5092511;28;20717;-59
2023/09/04 10:08:33;;;;;;;8.57;4.40;;;21.40;80.50;;;;;;5092632;28;20190;-59
2023/09/04 10:11:03;;;;;;;5.93;4.55;;;21.40;80.40;;;;;;5092511;28;20218;-59
2023/09/04 10:13:38;;;;;;;9.45;4.60;;;21.40;80.30;;;;;;5092372;28;20194;-59
2023/09/04 10:16:13;;;;;;;14.57;5.15;;;21.40;80.30;;;;;;5092475;28;20185;-57
2023/09/04 10:18:49;;;;;;;7.22;4.88;;;21.40;80.30;;;;;;5092722;28;20200;-60
2023/09/04 10:21:20;;;;;;;9.38;4.38;;;21.40;80.30;;;;;;5092587;28;20273;-59
2023/09/04 10:23:54;;;;;;;7.88;4.30;;;21.40;80.20;;;;;;5092637;28;20186;-59
2023/09/04 10:26:27;;;;;;;7.30;4.35;;;21.50;80.20;;;;;;5092167;28;20190;-58
2023/09/04 10:29:03;;;;;;;6.70;4.35;;;21.50;80.10;;;;;;5092572;28;20187;-56
2023/09/04 10:31:34;;;;;;;6.05;4.60;;;21.40;80.00;;;;;;5092096;28;20213;-60
2023/09/04 10:34:02;;;;;;;10.68;4.40;;;21.40;79.90;;;;;;5092152;28;20190;-58
2023/09/04 10:36:30;;;;;;;8.35;4.65;;;21.40;79.70;;;;;;5092133;28;20186;-60
2023/09/04 10:39:02;;;;;;;7.70;4.70;;;21.40;79.70;;;;;;5092289;28;20190;-56
2023/09/04 10:41:33;;;;;;;6.65;4.70;;;21.50;79.70;;;;;;5092263;28;20357;-55
2023/09/04 10:44:01;;;;;;;9.32;4.20;;;21.40;79.60;;;;;;5092056;28;20192;-60
2023/09/04 10:46:28;;;;;;;7.45;4.40;;;21.40;79.60;;;;;;5092190;28;20302;-60
2023/09/04 10:48:58;;;;;;;7.20;4.07;;;21.50;79.70;;;;;;5092093;28;20189;-54
2023/09/04 10:51:33;;;;;;;10.85;4.45;;;21.50;79.50;;;;;;5096374;28;20222;-57
2023/09/04 10:54:03;;;;;;;7.57;4.25;;;21.50;79.40;;;;;;5096297;28;20223;-55
2023/09/04 10:56:54;;;;;;;8.13;4.00;;;21.50;79.30;;;;;;5096412;28;20289;-57
2023/09/04 10:59:21;;;;;;;9.98;4.30;;;21.50;79.20;;;;;;5096105;28;20194;-59
2023/09/04 11:01:48;;;;;;;7.72;4.47;;;21.50;79.10;;;;;;5095818;28;20198;-58
2023/09/04 11:04:43;;;;;;;9.48;4.00;;;21.60;79.10;;;;;;5096074;28;20237;-58
2023/09/04 11:07:31;;;;;;;5.35;4.22;;;21.50;78.90;;;;;;5096014;28;20190;-56
2023/09/04 11:10:33;;;;;;;5.05;3.95;;;21.50;78.80;;;;;;5096251;28;20193;-58
2023/09/04 11:13:01;;;;;;;12.10;4.60;;;21.50;78.80;;;;;;5096319;28;20199;-59
2023/09/04 11:15:31;;;;;;;13.82;4.30;;;21.50;78.80;;;;;;5095776;28;20598;-56
2023/09/04 11:17:59;;;;;;;6.93;4.28;;;21.50;78.80;;;;;;5095768;28;20236;-58
2023/09/04 11:23:29;;;;;;;7.97;3.83;;;21.50;78.60;;;;;;5095712;28;20205;-59
2023/09/04 11:25:57;;;;;;;6.90;4.13;;;21.50;78.60;;;;;;5095888;28;20265;-59
2023/09/04 11:28:26;;;;;;;7.43;4.03;;;21.50;78.60;;;;;;5095945;28;20419;-59
2023/09/04 11:33:37;;;;;;;13.02;3.97;;;21.50;78.40;;;;;;5094633;28;20367;-59
2023/09/04 11:39:34;;;;;;;9.80;4.45;;;21.60;78.60;;;;;;5095524;28;20672;-59
2023/09/04 11:42:02;;;;;;;7.25;4.15;;;21.50;78.30;;;;;;5095641;28;20232;-58
2023/09/04 11:44:32;;;;;;;9.13;4.88;;;21.50;78.20;;;;;;5095273;28;20194;-58
2023/09/04 11:47:00;;;;;;;12.93;4.22;;;21.50;78.10;;;;;;5095164;28;20198;-56
2023/09/04 11:49:28;;;;;;;9.50;4.35;;;21.70;78.20;;;;;;5095484;28;20194;-57
2023/09/04 11:52:13;;;;;;;6.53;3.78;;;21.60;78.10;;;;;;5095230;28;20214;-60
2023/09/04 11:54:41;;;;;;;6.68;4.07;;;21.60;77.90;;;;;;5095321;28;20280;-59
2023/09/04 11:57:10;;;;;;;5.85;4.53;;;21.60;77.80;;;;;;5095241;28;20182;-59
2023/09/04 11:59:38;;;;;;;7.30;4.40;;;21.60;77.80;;;;;;5095039;28;20277;-58
2023/09/04 12:02:06;;;;;;;5.63;4.10;;;21.60;77.60;;;;;;5094764;28;20190;-57
2023/09/04 12:04:34;;;;;;;10.98;4.15;;;21.70;77.60;;;;;;5091430;28;20230;-58
2023/09/04 12:07:03;;;;;;;4.70;3.83;;;21.60;77.40;;;;;;5095565;28;20202;-58
2023/09/04 12:09:31;;;;;;;6.82;4.38;;;21.60;77.40;;;;;;5095107;28;20197;-58
2023/09/04 12:11:59;;;;;;;7.00;4.55;;;21.60;77.40;;;;;;5095020;28;20304;-60
2023/09/04 12:14:27;;;;;;;5.10;3.95;;;21.60;77.40;;;;;;5094327;28;20190;-59
2023/09/04 12:16:54;;;;;;;8.48;3.97;;;21.60;77.20;;;;;;5095043;28;20186;-57
2023/09/04 12:19:26;;;;;;;8.75;3.80;;;21.80;94.40;;;;;;5094871;28;20193;-59
2023/09/04 12:21:54;;;;;;;6.65;3.53;;;21.60;77.00;;;;;;5094537;28;20194;-60
2023/09/04 12:24:23;;;;;;;22.40;5.55;;;21.70;77.10;;;;;;5094470;28;20627;-60
2023/09/04 12:26:51;;;;;;;7.80;4.00;;;21.60;76.90;;;;;;5094448;28;20222;-59
2023/09/04 12:29:19;;;;;;;9.52;3.85;;;21.70;76.90;;;;;;5094501;28;20243;-59
2023/09/04 12:31:49;;;;;;;4.45;3.78;;;21.60;76.70;;;;;;5094605;28;20217;-59
2023/09/04 12:34:16;;;;;;;6.72;3.85;;;21.70;76.70;;;;;;5094258;28;20186;-58
2023/09/04 12:36:47;;;;;;;5.53;4.40;;;21.70;76.70;;;;;;5094354;28;20190;-58
2023/09/04 12:39:15;;;;;;;5.38;4.00;;;21.70;76.50;;;;;;5094648;28;20190;-57
2023/09/04 12:41:44;;;;;;;7.65;3.95;;;21.70;76.40;;;;;;5094248;28;20215;-59
2023/09/04 12:44:12;;;;;;;4.13;3.67;;;21.70;76.20;;;;;;5094307;28;20206;-56
2023/09/04 12:46:39;;;;;;;11.02;4.47;;;21.70;76.10;;;;;;5094415;28;20198;-55
2023/09/04 12:49:06;;;;;;;5.70;3.88;;;21.70;76.10;;;;;;5094005;28;20642;-59
2023/09/04 12:51:35;;;;;;;10.70;4.10;;;21.70;75.90;;;;;;5094087;28;20287;-59
2023/09/04 12:54:02;;;;;;;6.20;3.65;;;21.60;82.60;;;;;;5094242;28;20187;-57
2023/09/04 12:56:29;;;;;;;4.82;3.80;;;21.70;75.70;;;;;;5094234;28;20201;-59
2023/09/04 12:59:38;;;;;;;11.90;4.30;;;21.80;75.60;;;;;;5094009;28;20190;-58
2023/09/04 13:02:07;;;;;;;4.72;3.65;;;21.80;75.60;;;;;;5066063;28;20241;-57
2023/09/04 13:04:53;;;;;;;7.65;4.07;;;21.70;75.40;;;;;;5093793;28;20225;-60
2023/09/04 13:07:20;;;;;;;7.30;3.75;;;21.70;75.30;;;;;;5093750;28;20297;-59
2023/09/04 13:09:48;;;;;;;6.80;3.97;;;21.40;88.70;;;;;;5094131;28;20190;-60